Time;durP1;ratioP1;P1;durP2;ratioP2;P2;SDS_P1;SDS_P2;PMS_P1;PMS_P2;Temp;Humidity;BMP_temperature;BMP_pressure;BME280_temperature;BME280_humidity;BME280_pressure;Samples;Min_cycle;Max_cycle;Signal;HPM_P1;HPM_P2
2022/01/05 00:02:20;;;;;;;14.50;2.30;;;;;;;;;;4949048;29;20035;-93
2022/01/05 00:04:47;;;;;;;13.38;2.70;;;;;;;;;;4941722;29;20106;-93
2022/01/05 00:07:12;;;;;;;19.20;3.88;;;;;;;;;;4940542;29;20046;-93
2022/01/05 00:09:37;;;;;;;13.95;2.90;;;;;;;;;;4940921;29;20027;-93
2022/01/05 00:12:03;;;;;;;13.15;2.47;;;;;;;;;;4940787;29;20038;-93
2022/01/05 00:14:28;;;;;;;21.63;2.63;;;;;;;;;;4941890;29;20024;-93
2022/01/05 00:16:53;;;;;;;23.10;2.70;;;;;;;;;;4941359;29;20063;-93
2022/01/05 00:19:18;;;;;;;17.20;2.92;;;;;;;;;;4941167;29;20027;-93
2022/01/05 00:21:44;;;;;;;19.52;2.65;;;;;;;;;;4941726;29;20035;-93
2022/01/05 00:24:09;;;;;;;18.03;3.10;;;;;;;;;;4940584;29;20015;-93
2022/01/05 00:26:35;;;;;;;18.38;2.58;;;;;;;;;;4942780;29;20267;-93
2022/01/05 00:29:00;;;;;;;22.33;3.80;;;;;;;;;;4944263;29;20023;-94
2022/01/05 00:31:26;;;;;;;20.10;2.33;;;;;;;;;;4945937;29;20113;-93
2022/01/05 00:33:51;;;;;;;22.27;3.90;;;;;;;;;;4948156;29;20102;-93
2022/01/05 00:36:17;;;;;;;24.85;2.72;;;;;;;;;;4945094;29;20035;-93
2022/01/05 00:38:43;;;;;;;21.52;3.35;;;;;;;;;;4950562;29;20495;-93
2022/01/05 00:41:08;;;;;;;18.77;3.25;;;;;;;;;;4944629;29;20030;-93
2022/01/05 00:43:34;;;;;;;29.17;4.55;;;;;;;;;;4943849;29;20031;-93
2022/01/05 00:45:59;;;;;;;18.80;3.38;;;;;;;;;;4944499;29;20030;-93
2022/01/05 00:48:24;;;;;;;17.58;3.83;;;;;;;;;;4947721;29;20029;-93
2022/01/05 00:50:50;;;;;;;15.95;3.88;;;;;;;;;;4946191;29;20062;-94
2022/01/05 00:53:16;;;;;;;15.52;2.55;;;;;;;;;;4947286;29;20019;-94
2022/01/05 00:55:41;;;;;;;21.88;3.30;;;;;;;;;;4946155;29;20023;-93
2022/01/05 00:58:06;;;;;;;28.13;4.70;;;;;;;;;;4946024;29;20114;-93
2022/01/05 01:00:32;;;;;;;20.92;3.20;;;;;;;;;;4943392;29;20027;-93
2022/01/05 01:02:57;;;;;;;26.40;3.95;;;;;;;;;;4943993;28;20476;-93
2022/01/05 01:05:22;;;;;;;27.88;3.47;;;;;;;;;;4951141;29;20027;-94
2022/01/05 01:07:51;;;;;;;25.00;3.85;;;;;;;;;;4959897;28;20027;-94
2022/01/05 01:10:22;;;;;;;23.67;4.60;;;;;;;;;;4953409;29;20031;-94
2022/01/05 01:12:47;;;;;;;24.88;4.07;;;;;;;;;;4947360;28;20023;-93
2022/01/05 01:15:12;;;;;;;23.15;3.15;;;;;;;;;;4942968;29;20835;-93
2022/01/05 01:17:38;;;;;;;21.00;4.20;;;;;;;;;;4943852;29;20019;-93
2022/01/05 01:20:04;;;;;;;18.40;3.45;;;;;;;;;;4964550;28;20098;-94
2022/01/05 01:22:31;;;;;;;16.63;2.80;;;;;;;;;;4948313;29;20197;-93
2022/01/05 01:24:56;;;;;;;22.33;3.45;;;;;;;;;;4941040;29;20034;-93
2022/01/05 01:27:21;;;;;;;31.55;3.95;;;;;;;;;;4940293;29;20027;-93
2022/01/05 01:29:47;;;;;;;21.90;3.08;;;;;;;;;;4939959;29;20023;-93
2022/01/05 01:32:12;;;;;;;18.42;2.75;;;;;;;;;;4957138;29;20023;-93
2022/01/05 01:34:38;;;;;;;17.30;3.97;;;;;;;;;;4938910;29;20089;-93
2022/01/05 01:37:03;;;;;;;14.85;3.72;;;;;;;;;;4957732;29;20042;-93
2022/01/05 01:39:28;;;;;;;23.75;3.42;;;;;;;;;;4938696;29;20034;-93
2022/01/05 01:41:54;;;;;;;20.50;3.67;;;;;;;;;;4939508;29;20031;-93
2022/01/05 01:44:19;;;;;;;17.17;2.90;;;;;;;;;;4945364;29;20027;-93
2022/01/05 01:46:45;;;;;;;22.95;4.28;;;;;;;;;;4940620;29;20118;-93
2022/01/05 01:49:11;;;;;;;17.95;3.72;;;;;;;;;;4941383;29;20026;-93
2022/01/05 01:51:36;;;;;;;14.65;2.45;;;;;;;;;;4942403;29;20027;-93
2022/01/05 01:54:03;;;;;;;17.13;2.67;;;;;;;;;;4944764;29;20160;-94
2022/01/05 01:56:31;;;;;;;19.52;3.35;;;;;;;;;;4952414;29;20011;-94
2022/01/05 01:58:56;;;;;;;17.13;2.53;;;;;;;;;;4950931;29;20497;-94
2022/01/05 02:01:22;;;;;;;17.45;3.60;;;;;;;;;;4956377;29;20031;-94
2022/01/05 02:06:17;;;;;;;18.77;3.60;;;;;;;;;;4985721;23;20047;-94
2022/01/05 02:08:43;;;;;;;17.60;2.80;;;;;;;;;;4951465;29;20087;-94
2022/01/05 02:16:41;;;;;;;26.65;3.63;;;;;;;;;;4951799;28;20051;-94
2022/01/05 02:19:09;;;;;;;23.08;4.75;;;;;;;;;;4948454;29;20040;-94
2022/01/05 02:21:37;;;;;;;16.02;3.97;;;;;;;;;;4929256;29;20113;-94
2022/01/05 02:24:05;;;;;;;22.45;3.78;;;;;;;;;;4927989;29;20034;-94
2022/01/05 02:26:31;;;;;;;19.15;3.22;;;;;;;;;;4929807;29;20083;-94
2022/01/05 02:28:57;;;;;;;24.13;3.83;;;;;;;;;;4928256;29;20036;-94
2022/01/05 02:31:23;;;;;;;26.67;3.50;;;;;;;;;;4929499;29;20030;-94
2022/01/05 02:33:48;;;;;;;21.20;4.05;;;;;;;;;;4930957;29;20027;-94
2022/01/05 02:36:17;;;;;;;31.55;4.88;;;;;;;;;;4931018;29;20114;-93
2022/01/05 02:38:43;;;;;;;33.58;4.28;;;;;;;;;;4921320;29;20027;-93
2022/01/05 02:41:13;;;;;;;20.20;3.10;;;;;;;;;;4920491;29;20091;-93
2022/01/05 02:43:39;;;;;;;31.70;4.53;;;;;;;;;;4943286;29;20024;-93
2022/01/05 02:46:04;;;;;;;31.92;5.05;;;;;;;;;;4921712;29;20047;-92
2022/01/05 02:48:30;;;;;;;32.17;4.50;;;;;;;;;;4920897;29;20027;-93
2022/01/05 02:50:56;;;;;;;26.40;4.75;;;;;;;;;;4930930;28;20043;-93
2022/01/05 02:53:22;;;;;;;33.70;4.20;;;;;;;;;;4930266;29;20113;-93
2022/01/05 02:55:47;;;;;;;61.58;6.47;;;;;;;;;;4922259;29;20024;-94
2022/01/05 02:58:17;;;;;;;47.78;7.30;;;;;;;;;;4925846;29;20027;-94
2022/01/05 03:00:43;;;;;;;53.15;6.40;;;;;;;;;;4931180;29;20031;-94
2022/01/05 03:24:09;;;;;;;45.53;5.18;;;;;;;;;;5170953;23;20048;31
2022/01/05 03:37:00;;;;;;;35.58;4.55;;;;;;;;;;4963826;29;20071;-94
2022/01/05 03:39:40;;;;;;;37.40;4.63;;;;;;;;;;4966465;29;20027;-94
2022/01/05 19:45:18;;;;;;;14.15;3.53;;;;;;;;;;4934261;23;20085;-94
2022/01/05 20:04:41;;;;;;;7.03;2.20;;;;;;;;;;5013616;23;20144;-94
2022/01/05 20:26:02;;;;;;;12.32;2.50;;;;;;;;;;4892269;29;20089;-95
2022/01/05 20:28:28;;;;;;;11.95;2.30;;;;;;;;;;4875931;29;20123;-95
2022/01/05 20:30:54;;;;;;;15.32;2.95;;;;;;;;;;4859699;29;20029;-95
2022/01/05 20:33:20;;;;;;;24.58;3.03;;;;;;;;;;4860289;29;20441;-95
2022/01/05 20:35:46;;;;;;;7.80;2.28;;;;;;;;;;4856563;29;20467;-96
2022/01/05 20:38:12;;;;;;;8.35;2.13;;;;;;;;;;4858946;29;20071;-95
2022/01/05 20:40:40;;;;;;;11.98;2.83;;;;;;;;;;4857865;29;20022;-95
2022/01/05 20:48:37;;;;;;;13.25;3.13;;;;;;;;;;2424516;23;20264;-93
2022/01/05 20:51:04;;;;;;;9.52;2.30;;;;;;;;;;4940769;29;20040;-95
2022/01/05 20:53:31;;;;;;;11.23;2.38;;;;;;;;;;4936334;29;20036;-95
2022/01/05 20:56:00;;;;;;;13.52;3.00;;;;;;;;;;4917414;29;20020;-95
2022/01/05 20:58:44;;;;;;;10.48;2.28;;;;;;;;;;4933261;29;20031;-95
2022/01/05 21:01:13;;;;;;;8.18;2.63;;;;;;;;;;4921504;29;20101;-95
2022/01/05 21:48:21;;;;;;;15.80;3.28;;;;;;;;;;1335103;23;20237;-93
2022/01/05 21:50:47;;;;;;;13.80;2.15;;;;;;;;;;4928785;29;20044;-94
2022/01/05 21:53:14;;;;;;;12.65;3.13;;;;;;;;;;4923414;29;20050;-94
2022/01/05 21:55:42;;;;;;;16.13;4.80;;;;;;;;;;4921362;29;20036;-94
2022/01/05 21:58:12;;;;;;;12.07;2.93;;;;;;;;;;4915816;29;20021;-94
2022/01/05 22:00:38;;;;;;;15.32;2.47;;;;;;;;;;4915070;29;20020;-93
2022/01/05 22:03:19;;;;;;;9.25;2.38;;;;;;;;;;4916135;29;20028;-93
2022/01/05 22:05:45;;;;;;;5.68;2.20;;;;;;;;;;4911845;29;20024;-93
2022/01/05 22:08:10;;;;;;;7.90;2.40;;;;;;;;;;4910249;29;20384;-93
2022/01/05 22:10:38;;;;;;;8.43;1.98;;;;;;;;;;4914166;29;20104;-94
2022/01/05 22:13:03;;;;;;;11.90;3.00;;;;;;;;;;4914387;29;20024;-93
2022/01/05 22:15:31;;;;;;;15.50;2.63;;;;;;;;;;4915840;29;20035;-94
2022/01/05 22:17:59;;;;;;;8.32;3.05;;;;;;;;;;4915585;29;20016;-94
2022/01/05 22:54:38;;;;;;;11.15;2.72;;;;;;;;;;6051926;23;20050;31
2022/01/05 22:57:05;;;;;;;11.70;2.60;;;;;;;;;;4875798;29;20053;-94
2022/01/05 22:59:32;;;;;;;7.10;2.72;;;;;;;;;;4888586;29;20036;-94
2022/01/05 23:01:58;;;;;;;10.48;2.55;;;;;;;;;;4900999;29;20033;-94
2022/01/05 23:04:24;;;;;;;13.38;4.03;;;;;;;;;;4905341;29;20777;-94
2022/01/05 23:06:51;;;;;;;7.32;2.58;;;;;;;;;;4898453;29;20025;-94
2022/01/05 23:09:17;;;;;;;6.90;2.75;;;;;;;;;;4900584;29;20035;-94
2022/01/05 23:11:44;;;;;;;13.18;2.70;;;;;;;;;;4895796;29;20025;-94
2022/01/05 23:14:10;;;;;;;10.63;2.33;;;;;;;;;;4896460;29;20029;-94
2022/01/05 23:16:38;;;;;;;9.25;2.88;;;;;;;;;;4899036;29;20019;-94
2022/01/05 23:19:05;;;;;;;11.60;2.58;;;;;;;;;;4898401;29;20029;-94
2022/01/05 23:21:32;;;;;;;6.50;2.35;;;;;;;;;;4895372;29;20092;-94
2022/01/05 23:26:54;;;;;;;8.20;2.25;;;;;;;;;;4951002;29;20063;-94
2022/01/05 23:29:20;;;;;;;11.65;2.50;;;;;;;;;;4944531;29;20032;-94
2022/01/05 23:31:45;;;;;;;6.07;1.80;;;;;;;;;;4952618;29;20029;-94
2022/01/05 23:34:14;;;;;;;10.63;2.80;;;;;;;;;;4952626;29;20008;-94
2022/01/05 23:42:27;;;;;;;10.45;2.88;;;;;;;;;;1860456;23;20023;-95
2022/01/05 23:44:54;;;;;;;25.83;4.18;;;;;;;;;;4901330;29;20037;-94
2022/01/05 23:47:23;;;;;;;11.73;2.20;;;;;;;;;;4896824;29;20108;-94
2022/01/05 23:49:51;;;;;;;6.18;2.15;;;;;;;;;;4961002;23;20060;-94
2022/01/05 23:52:18;;;;;;;7.35;2.17;;;;;;;;;;4937872;29;20060;-94
2022/01/05 23:54:43;;;;;;;13.02;3.03;;;;;;;;;;4931230;29;20032;-94
2022/01/05 23:57:11;;;;;;;10.63;2.72;;;;;;;;;;4929361;29;20020;-94
2022/01/05 23:59:37;;;;;;;6.53;1.92;;;;;;;;;;4931236;29;20528;-95
